sensor_id;sensor_type;location;lat;lon;timestamp;temperature;humidity
21752;DHT22;11038;50.940;20.564;2022-09-13T00:00:06;11.60;1.00
21752;DHT22;11038;50.940;20.564;2022-09-13T00:01:59;11.50;1.00
21752;DHT22;11038;50.940;20.564;2022-09-13T00:03:31;11.50;1.00
21752;DHT22;11038;50.940;20.564;2022-09-13T00:05:04;11.40;1.00
21752;DHT22;11038;50.940;20.564;2022-09-13T00:06:36;11.40;1.00
21752;DHT22;11038;50.940;20.564;2022-09-13T00:08:09;11.30;1.00
21752;DHT22;11038;50.940;20.564;2022-09-13T00:09:41;11.30;1.00
21752;DHT22;11038;50.940;20.564;2022-09-13T00:11:15;11.30;1.00
21752;DHT22;11038;50.940;20.564;2022-09-13T00:12:50;11.20;1.00
21752;DHT22;11038;50.940;20.564;2022-09-13T00:14:22;11.20;1.00
21752;DHT22;11038;50.940;20.564;2022-09-13T00:15:57;11.10;1.00
21752;DHT22;11038;50.940;20.564;2022-09-13T00:17:31;11.10;1.00
21752;DHT22;11038;50.940;20.564;2022-09-13T00:19:04;11.00;1.00
21752;DHT22;11038;50.940;20.564;2022-09-13T00:20:36;10.90;1.00
21752;DHT22;11038;50.940;20.564;2022-09-13T00:22:08;10.90;1.00
21752;DHT22;11038;50.940;20.564;2022-09-13T00:23:44;10.90;1.00
21752;DHT22;11038;50.940;20.564;2022-09-13T00:25:17;10.80;1.00
21752;DHT22;11038;50.940;20.564;2022-09-13T00:26:49;10.80;1.00
21752;DHT22;11038;50.940;20.564;2022-09-13T00:28:21;10.70;1.00
21752;DHT22;11038;50.940;20.564;2022-09-13T00:29:54;10.70;1.00
21752;DHT22;11038;50.940;20.564;2022-09-13T00:31:26;10.70;1.00
21752;DHT22;11038;50.940;20.564;2022-09-13T00:33:00;10.70;1.00
21752;DHT22;11038;50.940;20.564;2022-09-13T00:34:35;10.60;1.00
21752;DHT22;11038;50.940;20.564;2022-09-13T00:36:09;10.60;1.00
21752;DHT22;11038;50.940;20.564;2022-09-13T00:37:42;10.60;1.00
21752;DHT22;11038;50.940;20.564;2022-09-13T00:39:14;10.60;1.00
21752;DHT22;11038;50.940;20.564;2022-09-13T00:40:46;10.60;1.00
21752;DHT22;11038;50.940;20.564;2022-09-13T00:42:23;10.50;1.00
21752;DHT22;11038;50.940;20.564;2022-09-13T00:43:58;10.50;1.00
21752;DHT22;11038;50.940;20.564;2022-09-13T00:45:31;10.40;1.00
21752;DHT22;11038;50.940;20.564;2022-09-13T00:47:04;10.40;1.00
21752;DHT22;11038;50.940;20.564;2022-09-13T00:48:36;10.30;1.00
21752;DHT22;11038;50.940;20.564;2022-09-13T00:51:55;10.30;1.00
21752;DHT22;11038;50.940;20.564;2022-09-13T00:53:31;10.30;1.00
21752;DHT22;11038;50.940;20.564;2022-09-13T00:55:11;10.20;1.00
21752;DHT22;11038;50.940;20.564;2022-09-13T00:56:51;10.20;1.00
21752;DHT22;11038;50.940;20.564;2022-09-13T00:58:28;10.20;1.00
21752;DHT22;11038;50.940;20.564;2022-09-13T01:00:08;10.10;1.00
21752;DHT22;11038;50.940;20.564;2022-09-13T01:01:46;10.10;1.00
21752;DHT22;11038;50.940;20.564;2022-09-13T01:03:21;10.00;1.00
21752;DHT22;11038;50.940;20.564;2022-09-13T01:04:56;10.00;1.00
21752;DHT22;11038;50.940;20.564;2022-09-13T01:06:30;10.00;1.00
21752;DHT22;11038;50.940;20.564;2022-09-13T01:08:04;10.00;1.00
21752;DHT22;11038;50.940;20.564;2022-09-13T01:09:44;9.90;1.00
21752;DHT22;11038;50.940;20.564;2022-09-13T01:13:24;9.90;1.00
21752;DHT22;11038;50.940;20.564;2022-09-13T01:14:59;9.90;1.00
21752;DHT22;11038;50.940;20.564;2022-09-13T01:16:34;9.80;1.00
21752;DHT22;11038;50.940;20.564;2022-09-13T01:18:07;9.90;1.00
21752;DHT22;11038;50.940;20.564;2022-09-13T01:19:41;9.90;1.00
21752;DHT22;11038;50.940;20.564;2022-09-13T01:30:20;9.90;1.00
21752;DHT22;11038;50.940;20.564;2022-09-13T01:32:06;9.90;1.00
21752;DHT22;11038;50.940;20.564;2022-09-13T01:35:55;9.90;1.00
21752;DHT22;11038;50.940;20.564;2022-09-13T01:37:50;10.00;1.00
21752;DHT22;11038;50.940;20.564;2022-09-13T01:39:48;10.00;1.00
21752;DHT22;11038;50.940;20.564;2022-09-13T01:43:21;10.00;1.00
21752;DHT22;11038;50.940;20.564;2022-09-13T01:45:11;10.00;1.00
21752;DHT22;11038;50.940;20.564;2022-09-13T01:48:38;10.00;1.00
21752;DHT22;11038;50.940;20.564;2022-09-13T01:54:20;10.10;1.00
21752;DHT22;11038;50.940;20.564;2022-09-13T01:57:52;10.10;1.00
21752;DHT22;11038;50.940;20.564;2022-09-13T01:59:50;10.10;1.00
21752;DHT22;11038;50.940;20.564;2022-09-13T02:01:32;10.20;1.00
21752;DHT22;11038;50.940;20.564;2022-09-13T02:03:11;10.10;1.00
21752;DHT22;11038;50.940;20.564;2022-09-13T02:04:50;10.20;1.00
21752;DHT22;11038;50.940;20.564;2022-09-13T02:06:27;10.20;1.00
21752;DHT22;11038;50.940;20.564;2022-09-13T02:08:14;10.20;1.00
21752;DHT22;11038;50.940;20.564;2022-09-13T02:09:53;10.20;1.00
21752;DHT22;11038;50.940;20.564;2022-09-13T02:11:31;10.20;1.00
21752;DHT22;11038;50.940;20.564;2022-09-13T02:13:07;10.30;1.00
21752;DHT22;11038;50.940;20.564;2022-09-13T02:14:45;10.20;1.00
21752;DHT22;11038;50.940;20.564;2022-09-13T02:16:28;10.30;1.00
21752;DHT22;11038;50.940;20.564;2022-09-13T02:18:09;10.30;1.00
21752;DHT22;11038;50.940;20.564;2022-09-13T02:19:50;10.30;1.00
21752;DHT22;11038;50.940;20.564;2022-09-13T02:21:27;10.30;1.00
21752;DHT22;11038;50.940;20.564;2022-09-13T02:23:06;10.30;1.00
21752;DHT22;11038;50.940;20.564;2022-09-13T02:24:43;10.30;1.00
21752;DHT22;11038;50.940;20.564;2022-09-13T02:26:19;10.30;1.00
21752;DHT22;11038;50.940;20.564;2022-09-13T02:27:55;10.30;1.00
21752;DHT22;11038;50.940;20.564;2022-09-13T02:29:32;10.30;1.00
21752;DHT22;11038;50.940;20.564;2022-09-13T02:31:08;10.40;1.00
21752;DHT22;11038;50.940;20.564;2022-09-13T02:34:19;10.40;1.00
21752;DHT22;11038;50.940;20.564;2022-09-13T02:37:33;10.40;1.00
21752;DHT22;11038;50.940;20.564;2022-09-13T02:39:08;10.40;1.00
21752;DHT22;11038;50.940;20.564;2022-09-13T02:40:47;10.40;1.00
21752;DHT22;11038;50.940;20.564;2022-09-13T02:44:20;10.10;1.00
21752;DHT22;11038;50.940;20.564;2022-09-13T02:46:04;10.00;1.00
21752;DHT22;11038;50.940;20.564;2022-09-13T02:51:07;9.50;1.00
21752;DHT22;11038;50.940;20.564;2022-09-13T02:54:36;9.30;1.00
21752;DHT22;11038;50.940;20.564;2022-09-13T02:56:23;9.30;1.00
21752;DHT22;11038;50.940;20.564;2022-09-13T03:00:19;9.20;1.00
21752;DHT22;11038;50.940;20.564;2022-09-13T03:03:30;9.20;1.00
21752;DHT22;11038;50.940;20.564;2022-09-13T03:05:02;9.20;1.00
21752;DHT22;11038;50.940;20.564;2022-09-13T03:06:36;9.10;1.00
21752;DHT22;11038;50.940;20.564;2022-09-13T03:08:09;9.00;1.00
21752;DHT22;11038;50.940;20.564;2022-09-13T03:09:48;9.00;1.00
21752;DHT22;11038;50.940;20.564;2022-09-13T03:11:49;9.00;1.00
21752;DHT22;11038;50.940;20.564;2022-09-13T03:13:53;9.00;1.00
21752;DHT22;11038;50.940;20.564;2022-09-13T03:21:51;8.90;1.00
21752;DHT22;11038;50.940;20.564;2022-09-13T03:29:25;8.90;1.00
21752;DHT22;11038;50.940;20.564;2022-09-13T03:31:17;8.90;1.00
21752;DHT22;11038;50.940;20.564;2022-09-13T03:33:01;8.90;1.00
21752;DHT22;11038;50.940;20.564;2022-09-13T03:37:35;8.90;1.00
21752;DHT22;11038;50.940;20.564;2022-09-13T03:40:48;8.80;1.10
21752;DHT22;11038;50.940;20.564;2022-09-13T03:42:24;8.80;16.90
21752;DHT22;11038;50.940;20.564;2022-09-13T03:43:59;8.80;36.30
21752;DHT22;11038;50.940;20.564;2022-09-13T03:45:37;8.80;53.90
21752;DHT22;11038;50.940;20.564;2022-09-13T03:47:13;8.80;50.00
21752;DHT22;11038;50.940;20.564;2022-09-13T03:48:48;8.80;59.90
21752;DHT22;11038;50.940;20.564;2022-09-13T03:50:22;8.80;77.00
21752;DHT22;11038;50.940;20.564;2022-09-13T03:51:57;8.80;79.00
21752;DHT22;11038;50.940;20.564;2022-09-13T03:53:30;8.80;78.10
21752;DHT22;11038;50.940;20.564;2022-09-13T03:55:06;8.80;63.70
21752;DHT22;11038;50.940;20.564;2022-09-13T03:56:39;8.70;47.70
21752;DHT22;11038;50.940;20.564;2022-09-13T03:58:12;8.80;46.40
21752;DHT22;11038;50.940;20.564;2022-09-13T03:59:46;8.80;59.10
21752;DHT22;11038;50.940;20.564;2022-09-13T04:01:21;8.80;92.10
21752;DHT22;11038;50.940;20.564;2022-09-13T04:02:55;8.80;99.90
21752;DHT22;11038;50.940;20.564;2022-09-13T04:04:27;8.80;99.90
21752;DHT22;11038;50.940;20.564;2022-09-13T04:05:59;8.90;99.90
21752;DHT22;11038;50.940;20.564;2022-09-13T04:07:31;8.90;99.90
21752;DHT22;11038;50.940;20.564;2022-09-13T04:09:04;8.90;99.90
21752;DHT22;11038;50.940;20.564;2022-09-13T04:10:36;9.00;99.90
21752;DHT22;11038;50.940;20.564;2022-09-13T04:12:08;9.00;99.90
21752;DHT22;11038;50.940;20.564;2022-09-13T04:13:44;9.10;99.90
21752;DHT22;11038;50.940;20.564;2022-09-13T04:15:16;9.10;99.90
21752;DHT22;11038;50.940;20.564;2022-09-13T04:16:49;9.10;99.90
21752;DHT22;11038;50.940;20.564;2022-09-13T04:18:21;9.20;99.90
21752;DHT22;11038;50.940;20.564;2022-09-13T04:19:53;9.30;99.90
21752;DHT22;11038;50.940;20.564;2022-09-13T04:21:25;9.40;99.90
21752;DHT22;11038;50.940;20.564;2022-09-13T04:22:57;9.70;99.90
21752;DHT22;11038;50.940;20.564;2022-09-13T04:24:29;9.90;99.90
21752;DHT22;11038;50.940;20.564;2022-09-13T04:26:03;10.20;99.90
21752;DHT22;11038;50.940;20.564;2022-09-13T04:27:36;10.50;99.90
21752;DHT22;11038;50.940;20.564;2022-09-13T04:29:08;10.90;99.90
21752;DHT22;11038;50.940;20.564;2022-09-13T04:30:42;11.20;99.90
21752;DHT22;11038;50.940;20.564;2022-09-13T04:32:18;11.50;99.90
21752;DHT22;11038;50.940;20.564;2022-09-13T04:33:50;11.70;99.90
21752;DHT22;11038;50.940;20.564;2022-09-13T04:35:22;11.90;1.00
21752;DHT22;11038;50.940;20.564;2022-09-13T04:36:54;12.10;1.00
21752;DHT22;11038;50.940;20.564;2022-09-13T04:38:27;12.30;1.00
21752;DHT22;11038;50.940;20.564;2022-09-13T04:40:00;12.20;1.00
21752;DHT22;11038;50.940;20.564;2022-09-13T04:41:32;12.00;1.00
21752;DHT22;11038;50.940;20.564;2022-09-13T04:43:05;12.00;1.00
21752;DHT22;11038;50.940;20.564;2022-09-13T04:44:37;12.20;1.00
21752;DHT22;11038;50.940;20.564;2022-09-13T04:46:09;12.30;1.00
21752;DHT22;11038;50.940;20.564;2022-09-13T04:47:42;12.30;1.00
21752;DHT22;11038;50.940;20.564;2022-09-13T04:49:14;12.40;1.00
21752;DHT22;11038;50.940;20.564;2022-09-13T04:50:49;12.80;1.00
21752;DHT22;11038;50.940;20.564;2022-09-13T04:52:21;13.30;1.00
21752;DHT22;11038;50.940;20.564;2022-09-13T04:53:54;13.70;1.00
21752;DHT22;11038;50.940;20.564;2022-09-13T04:55:26;14.10;1.00
21752;DHT22;11038;50.940;20.564;2022-09-13T04:56:59;14.60;1.00
21752;DHT22;11038;50.940;20.564;2022-09-13T04:58:32;15.10;1.00
21752;DHT22;11038;50.940;20.564;2022-09-13T05:00:04;15.40;1.00
21752;DHT22;11038;50.940;20.564;2022-09-13T05:01:37;15.90;1.00
21752;DHT22;11038;50.940;20.564;2022-09-13T05:03:47;16.20;1.00
21752;DHT22;11038;50.940;20.564;2022-09-13T05:05:22;16.40;1.00
21752;DHT22;11038;50.940;20.564;2022-09-13T05:06:56;16.60;1.00
21752;DHT22;11038;50.940;20.564;2022-09-13T05:08:29;17.10;1.00
21752;DHT22;11038;50.940;20.564;2022-09-13T05:10:02;17.30;1.00
21752;DHT22;11038;50.940;20.564;2022-09-13T05:11:35;17.30;1.00
21752;DHT22;11038;50.940;20.564;2022-09-13T05:13:07;17.30;1.00
21752;DHT22;11038;50.940;20.564;2022-09-13T05:14:39;17.50;1.00
21752;DHT22;11038;50.940;20.564;2022-09-13T05:16:11;17.80;1.00
21752;DHT22;11038;50.940;20.564;2022-09-13T05:17:43;18.00;1.00
21752;DHT22;11038;50.940;20.564;2022-09-13T05:19:15;18.30;1.00
21752;DHT22;11038;50.940;20.564;2022-09-13T05:20:47;18.60;1.00
21752;DHT22;11038;50.940;20.564;2022-09-13T05:22:20;18.90;1.00
21752;DHT22;11038;50.940;20.564;2022-09-13T05:23:52;19.20;1.00
21752;DHT22;11038;50.940;20.564;2022-09-13T05:25:25;19.50;1.00
21752;DHT22;11038;50.940;20.564;2022-09-13T05:26:57;19.90;1.00
21752;DHT22;11038;50.940;20.564;2022-09-13T05:28:31;20.10;1.00
21752;DHT22;11038;50.940;20.564;2022-09-13T05:30:05;20.50;1.00
21752;DHT22;11038;50.940;20.564;2022-09-13T05:31:39;21.00;1.00
21752;DHT22;11038;50.940;20.564;2022-09-13T05:33:12;21.20;1.00
21752;DHT22;11038;50.940;20.564;2022-09-13T05:34:44;21.10;1.00
21752;DHT22;11038;50.940;20.564;2022-09-13T05:36:17;21.20;1.00
21752;DHT22;11038;50.940;20.564;2022-09-13T05:37:49;21.60;1.00
21752;DHT22;11038;50.940;20.564;2022-09-13T05:39:21;22.40;1.00
21752;DHT22;11038;50.940;20.564;2022-09-13T05:41:13;22.70;1.00
21752;DHT22;11038;50.940;20.564;2022-09-13T05:42:45;22.40;1.00
21752;DHT22;11038;50.940;20.564;2022-09-13T05:44:17;22.10;1.00
21752;DHT22;11038;50.940;20.564;2022-09-13T05:45:49;22.10;1.00
21752;DHT22;11038;50.940;20.564;2022-09-13T05:47:22;22.20;1.00
21752;DHT22;11038;50.940;20.564;2022-09-13T05:48:56;22.30;1.00
21752;DHT22;11038;50.940;20.564;2022-09-13T05:50:30;22.40;1.00
21752;DHT22;11038;50.940;20.564;2022-09-13T05:52:22;22.60;1.00
21752;DHT22;11038;50.940;20.564;2022-09-13T05:53:55;22.70;1.00
21752;DHT22;11038;50.940;20.564;2022-09-13T05:55:28;22.80;1.00
21752;DHT22;11038;50.940;20.564;2022-09-13T05:57:01;22.90;1.00
21752;DHT22;11038;50.940;20.564;2022-09-13T05:58:34;23.10;1.00
21752;DHT22;11038;50.940;20.564;2022-09-13T06:00:10;23.30;1.00
21752;DHT22;11038;50.940;20.564;2022-09-13T06:01:42;23.50;1.00
21752;DHT22;11038;50.940;20.564;2022-09-13T06:03:16;23.60;1.00
21752;DHT22;11038;50.940;20.564;2022-09-13T06:04:48;23.60;1.00
21752;DHT22;11038;50.940;20.564;2022-09-13T06:06:22;23.60;1.00
21752;DHT22;11038;50.940;20.564;2022-09-13T06:07:55;23.60;1.00
21752;DHT22;11038;50.940;20.564;2022-09-13T06:09:27;23.60;1.00
21752;DHT22;11038;50.940;20.564;2022-09-13T06:11:01;23.80;1.00
21752;DHT22;11038;50.940;20.564;2022-09-13T06:12:36;23.80;1.00
21752;DHT22;11038;50.940;20.564;2022-09-13T06:14:08;23.80;1.00
21752;DHT22;11038;50.940;20.564;2022-09-13T06:15:41;23.60;1.00
21752;DHT22;11038;50.940;20.564;2022-09-13T06:17:14;23.50;1.00
21752;DHT22;11038;50.940;20.564;2022-09-13T06:18:46;23.60;1.00
21752;DHT22;11038;50.940;20.564;2022-09-13T06:20:18;23.50;1.00
21752;DHT22;11038;50.940;20.564;2022-09-13T06:21:51;23.40;1.00
21752;DHT22;11038;50.940;20.564;2022-09-13T06:23:23;23.40;1.00
21752;DHT22;11038;50.940;20.564;2022-09-13T06:24:55;23.30;1.00
21752;DHT22;11038;50.940;20.564;2022-09-13T06:26:27;23.40;1.00
21752;DHT22;11038;50.940;20.564;2022-09-13T06:27:59;23.30;1.00
21752;DHT22;11038;50.940;20.564;2022-09-13T06:29:31;23.30;1.00
21752;DHT22;11038;50.940;20.564;2022-09-13T06:31:08;23.20;1.00
21752;DHT22;11038;50.940;20.564;2022-09-13T06:32:41;23.20;1.00
21752;DHT22;11038;50.940;20.564;2022-09-13T06:34:13;23.20;1.00
21752;DHT22;11038;50.940;20.564;2022-09-13T06:35:47;23.20;1.00
21752;DHT22;11038;50.940;20.564;2022-09-13T06:37:19;22.90;1.00
21752;DHT22;11038;50.940;20.564;2022-09-13T06:38:52;22.80;1.00
21752;DHT22;11038;50.940;20.564;2022-09-13T06:40:25;22.80;1.00
21752;DHT22;11038;50.940;20.564;2022-09-13T06:41:57;22.90;1.00
21752;DHT22;11038;50.940;20.564;2022-09-13T06:43:29;22.70;1.00
21752;DHT22;11038;50.940;20.564;2022-09-13T06:45:02;22.60;1.00
21752;DHT22;11038;50.940;20.564;2022-09-13T06:46:34;22.80;1.00
21752;DHT22;11038;50.940;20.564;2022-09-13T06:48:07;22.60;1.00
21752;DHT22;11038;50.940;20.564;2022-09-13T06:49:40;22.70;1.00
21752;DHT22;11038;50.940;20.564;2022-09-13T06:51:16;22.80;1.00
21752;DHT22;11038;50.940;20.564;2022-09-13T06:52:50;23.00;1.00
21752;DHT22;11038;50.940;20.564;2022-09-13T06:54:22;23.00;1.00
21752;DHT22;11038;50.940;20.564;2022-09-13T06:57:38;22.90;1.00
21752;DHT22;11038;50.940;20.564;2022-09-13T06:59:10;22.90;1.00
21752;DHT22;11038;50.940;20.564;2022-09-13T07:00:42;22.90;1.00
21752;DHT22;11038;50.940;20.564;2022-09-13T07:02:15;23.20;1.00
21752;DHT22;11038;50.940;20.564;2022-09-13T07:03:48;23.10;1.00
21752;DHT22;11038;50.940;20.564;2022-09-13T07:05:25;23.30;1.00
21752;DHT22;11038;50.940;20.564;2022-09-13T07:06:58;23.40;1.00
21752;DHT22;11038;50.940;20.564;2022-09-13T07:08:30;23.90;1.00
21752;DHT22;11038;50.940;20.564;2022-09-13T07:10:03;24.10;1.00
21752;DHT22;11038;50.940;20.564;2022-09-13T07:11:36;24.00;1.00
21752;DHT22;11038;50.940;20.564;2022-09-13T07:13:10;23.60;1.00
21752;DHT22;11038;50.940;20.564;2022-09-13T07:14:42;23.30;1.00
21752;DHT22;11038;50.940;20.564;2022-09-13T07:16:14;22.80;1.00
21752;DHT22;11038;50.940;20.564;2022-09-13T07:17:46;22.50;1.00
21752;DHT22;11038;50.940;20.564;2022-09-13T07:19:19;22.40;1.00
21752;DHT22;11038;50.940;20.564;2022-09-13T07:21:03;22.10;1.00
21752;DHT22;11038;50.940;20.564;2022-09-13T07:22:37;22.10;1.00
21752;DHT22;11038;50.940;20.564;2022-09-13T07:24:09;22.10;1.00
21752;DHT22;11038;50.940;20.564;2022-09-13T07:25:42;22.10;1.00
21752;DHT22;11038;50.940;20.564;2022-09-13T07:27:14;22.50;1.00
21752;DHT22;11038;50.940;20.564;2022-09-13T07:28:48;22.40;1.00
21752;DHT22;11038;50.940;20.564;2022-09-13T07:30:22;22.60;1.00
21752;DHT22;11038;50.940;20.564;2022-09-13T07:31:56;22.70;1.00
21752;DHT22;11038;50.940;20.564;2022-09-13T07:33:29;23.00;1.00
21752;DHT22;11038;50.940;20.564;2022-09-13T07:35:01;23.20;1.00
21752;DHT22;11038;50.940;20.564;2022-09-13T07:36:34;23.30;1.00
21752;DHT22;11038;50.940;20.564;2022-09-13T07:38:07;23.20;1.00
21752;DHT22;11038;50.940;20.564;2022-09-13T07:39:40;23.20;1.00
21752;DHT22;11038;50.940;20.564;2022-09-13T07:41:16;23.20;1.00
21752;DHT22;11038;50.940;20.564;2022-09-13T07:42:49;23.30;1.00
21752;DHT22;11038;50.940;20.564;2022-09-13T07:44:21;23.40;1.00
21752;DHT22;11038;50.940;20.564;2022-09-13T07:46:01;23.40;1.00
21752;DHT22;11038;50.940;20.564;2022-09-13T07:47:35;23.60;1.00
21752;DHT22;11038;50.940;20.564;2022-09-13T07:49:08;23.90;1.00
21752;DHT22;11038;50.940;20.564;2022-09-13T07:50:54;23.80;1.00
21752;DHT22;11038;50.940;20.564;2022-09-13T07:52:28;23.60;1.00
21752;DHT22;11038;50.940;20.564;2022-09-13T07:54:00;23.40;1.00
21752;DHT22;11038;50.940;20.564;2022-09-13T07:55:35;23.30;1.00
21752;DHT22;11038;50.940;20.564;2022-09-13T07:57:07;23.40;1.00
21752;DHT22;11038;50.940;20.564;2022-09-13T07:58:40;23.20;1.00
21752;DHT22;11038;50.940;20.564;2022-09-13T08:00:14;23.20;1.00
21752;DHT22;11038;50.940;20.564;2022-09-13T08:01:48;23.00;1.00
21752;DHT22;11038;50.940;20.564;2022-09-13T08:03:21;22.80;1.00
21752;DHT22;11038;50.940;20.564;2022-09-13T08:04:54;22.80;1.00
21752;DHT22;11038;50.940;20.564;2022-09-13T08:06:26;22.90;1.00
21752;DHT22;11038;50.940;20.564;2022-09-13T08:08:00;22.80;1.00
21752;DHT22;11038;50.940;20.564;2022-09-13T08:09:33;22.70;1.00
21752;DHT22;11038;50.940;20.564;2022-09-13T08:11:05;22.60;1.00
21752;DHT22;11038;50.940;20.564;2022-09-13T08:12:38;22.40;1.00
21752;DHT22;11038;50.940;20.564;2022-09-13T08:14:11;22.20;1.00
21752;DHT22;11038;50.940;20.564;2022-09-13T08:15:44;22.20;1.00
21752;DHT22;11038;50.940;20.564;2022-09-13T08:17:17;22.10;1.00
21752;DHT22;11038;50.940;20.564;2022-09-13T08:18:50;22.00;1.00
21752;DHT22;11038;50.940;20.564;2022-09-13T08:20:24;22.00;1.00
21752;DHT22;11038;50.940;20.564;2022-09-13T08:21:56;22.00;1.00
21752;DHT22;11038;50.940;20.564;2022-09-13T08:23:29;22.00;1.00
21752;DHT22;11038;50.940;20.564;2022-09-13T08:25:01;22.10;1.00
21752;DHT22;11038;50.940;20.564;2022-09-13T08:26:34;22.30;1.00
21752;DHT22;11038;50.940;20.564;2022-09-13T08:28:08;22.40;1.00
21752;DHT22;11038;50.940;20.564;2022-09-13T08:29:45;22.50;1.00
21752;DHT22;11038;50.940;20.564;2022-09-13T08:31:17;22.70;1.00
21752;DHT22;11038;50.940;20.564;2022-09-13T08:32:51;22.80;1.00
21752;DHT22;11038;50.940;20.564;2022-09-13T08:34:23;22.80;1.00
21752;DHT22;11038;50.940;20.564;2022-09-13T08:35:55;22.90;1.00
21752;DHT22;11038;50.940;20.564;2022-09-13T08:37:31;23.10;1.00
21752;DHT22;11038;50.940;20.564;2022-09-13T08:39:05;23.40;1.00
21752;DHT22;11038;50.940;20.564;2022-09-13T08:40:39;23.40;1.00
21752;DHT22;11038;50.940;20.564;2022-09-13T08:42:27;23.40;1.00
21752;DHT22;11038;50.940;20.564;2022-09-13T08:46:04;23.80;1.00
21752;DHT22;11038;50.940;20.564;2022-09-13T08:47:47;24.00;1.00
21752;DHT22;11038;50.940;20.564;2022-09-13T08:49:24;24.10;1.00
21752;DHT22;11038;50.940;20.564;2022-09-13T08:51:00;24.00;1.00
21752;DHT22;11038;50.940;20.564;2022-09-13T08:53:19;24.00;1.00
21752;DHT22;11038;50.940;20.564;2022-09-13T08:54:39;24.00;1.00
21752;DHT22;11038;50.940;20.564;2022-09-13T08:56:14;23.80;1.00
21752;DHT22;11038;50.940;20.564;2022-09-13T08:57:54;23.60;1.00
21752;DHT22;11038;50.940;20.564;2022-09-13T09:04:14;23.10;1.00
21752;DHT22;11038;50.940;20.564;2022-09-13T09:05:57;23.20;1.00
21752;DHT22;11038;50.940;20.564;2022-09-13T09:07:31;23.10;1.00
21752;DHT22;11038;50.940;20.564;2022-09-13T09:09:15;23.20;1.00
21752;DHT22;11038;50.940;20.564;2022-09-13T09:10:50;23.30;1.00
21752;DHT22;11038;50.940;20.564;2022-09-13T09:13:02;23.30;1.00
21752;DHT22;11038;50.940;20.564;2022-09-13T09:14:35;23.30;1.00
21752;DHT22;11038;50.940;20.564;2022-09-13T09:18:13;23.50;1.00
21752;DHT22;11038;50.940;20.564;2022-09-13T09:19:52;23.80;1.00
21752;DHT22;11038;50.940;20.564;2022-09-13T09:21:34;23.60;1.00
21752;DHT22;11038;50.940;20.564;2022-09-13T09:23:12;23.20;1.00
21752;DHT22;11038;50.940;20.564;2022-09-13T09:24:54;23.30;1.00
21752;DHT22;11038;50.940;20.564;2022-09-13T09:26:29;23.20;1.00
21752;DHT22;11038;50.940;20.564;2022-09-13T09:28:05;23.10;1.00
21752;DHT22;11038;50.940;20.564;2022-09-13T09:29:44;22.90;1.00
21752;DHT22;11038;50.940;20.564;2022-09-13T09:31:23;22.90;1.00
21752;DHT22;11038;50.940;20.564;2022-09-13T09:33:19;22.90;1.00
21752;DHT22;11038;50.940;20.564;2022-09-13T09:38:40;23.00;1.00
21752;DHT22;11038;50.940;20.564;2022-09-13T09:40:14;23.00;1.00
21752;DHT22;11038;50.940;20.564;2022-09-13T09:41:48;23.10;1.00
21752;DHT22;11038;50.940;20.564;2022-09-13T09:43:24;23.10;1.00
21752;DHT22;11038;50.940;20.564;2022-09-13T09:45:03;23.10;1.00
21752;DHT22;11038;50.940;20.564;2022-09-13T09:47:11;23.20;1.00
21752;DHT22;11038;50.940;20.564;2022-09-13T09:48:47;23.20;1.00
21752;DHT22;11038;50.940;20.564;2022-09-13T09:50:27;23.10;1.00
21752;DHT22;11038;50.940;20.564;2022-09-13T09:52:05;23.10;1.00
21752;DHT22;11038;50.940;20.564;2022-09-13T09:53:43;23.10;1.00
21752;DHT22;11038;50.940;20.564;2022-09-13T09:56:59;22.90;1.00
21752;DHT22;11038;50.940;20.564;2022-09-13T09:58:39;23.00;1.00
21752;DHT22;11038;50.940;20.564;2022-09-13T10:00:13;23.10;1.00
21752;DHT22;11038;50.940;20.564;2022-09-13T10:01:46;23.00;1.00
21752;DHT22;11038;50.940;20.564;2022-09-13T10:03:19;23.10;1.00
21752;DHT22;11038;50.940;20.564;2022-09-13T10:04:56;23.10;1.00
21752;DHT22;11038;50.940;20.564;2022-09-13T10:06:31;23.10;1.00
21752;DHT22;11038;50.940;20.564;2022-09-13T10:08:04;23.10;1.00
21752;DHT22;11038;50.940;20.564;2022-09-13T10:09:38;22.90;1.00
21752;DHT22;11038;50.940;20.564;2022-09-13T10:11:10;22.90;1.00
21752;DHT22;11038;50.940;20.564;2022-09-13T10:12:43;22.80;1.00
21752;DHT22;11038;50.940;20.564;2022-09-13T10:14:44;22.70;1.00
21752;DHT22;11038;50.940;20.564;2022-09-13T10:16:22;22.60;1.00
21752;DHT22;11038;50.940;20.564;2022-09-13T10:21:53;22.40;1.00
21752;DHT22;11038;50.940;20.564;2022-09-13T10:23:32;22.30;1.00
21752;DHT22;11038;50.940;20.564;2022-09-13T10:25:39;22.20;1.00
21752;DHT22;11038;50.940;20.564;2022-09-13T10:27:29;22.30;1.00
21752;DHT22;11038;50.940;20.564;2022-09-13T10:29:14;22.50;1.00
21752;DHT22;11038;50.940;20.564;2022-09-13T10:31:26;22.40;1.00
21752;DHT22;11038;50.940;20.564;2022-09-13T10:32:55;22.50;1.00
21752;DHT22;11038;50.940;20.564;2022-09-13T10:34:28;22.50;1.00
21752;DHT22;11038;50.940;20.564;2022-09-13T10:36:13;22.50;1.00
21752;DHT22;11038;50.940;20.564;2022-09-13T10:38:16;22.40;1.00
21752;DHT22;11038;50.940;20.564;2022-09-13T10:40:21;22.50;1.00
21752;DHT22;11038;50.940;20.564;2022-09-13T10:42:05;22.50;1.00
21752;DHT22;11038;50.940;20.564;2022-09-13T10:43:39;22.60;1.00
21752;DHT22;11038;50.940;20.564;2022-09-13T10:45:15;22.60;1.00
21752;DHT22;11038;50.940;20.564;2022-09-13T10:46:54;22.80;1.00
21752;DHT22;11038;50.940;20.564;2022-09-13T10:48:29;22.90;1.00
21752;DHT22;11038;50.940;20.564;2022-09-13T10:55:51;22.80;1.00
21752;DHT22;11038;50.940;20.564;2022-09-13T10:57:30;22.80;1.00
21752;DHT22;11038;50.940;20.564;2022-09-13T10:59:24;22.80;1.00
21752;DHT22;11038;50.940;20.564;2022-09-13T11:04:44;22.50;1.00
21752;DHT22;11038;50.940;20.564;2022-09-13T11:08:15;22.30;1.00
21752;DHT22;11038;50.940;20.564;2022-09-13T11:10:38;22.20;1.00
21752;DHT22;11038;50.940;20.564;2022-09-13T11:15:59;22.00;1.00
21752;DHT22;11038;50.940;20.564;2022-09-13T11:18:00;22.10;1.00
21752;DHT22;11038;50.940;20.564;2022-09-13T11:23:41;22.20;1.00
21752;DHT22;11038;50.940;20.564;2022-09-13T11:27:25;22.20;1.00
21752;DHT22;11038;50.940;20.564;2022-09-13T11:38:27;21.80;1.00
21752;DHT22;11038;50.940;20.564;2022-09-13T11:42:04;21.70;1.00
21752;DHT22;11038;50.940;20.564;2022-09-13T11:46:04;21.60;1.00
21752;DHT22;11038;50.940;20.564;2022-09-13T11:52:01;21.80;1.00
21752;DHT22;11038;50.940;20.564;2022-09-13T11:53:38;21.80;1.00
21752;DHT22;11038;50.940;20.564;2022-09-13T11:55:27;22.10;1.00
21752;DHT22;11038;50.940;20.564;2022-09-13T11:57:05;22.30;1.00
21752;DHT22;11038;50.940;20.564;2022-09-13T11:58:44;22.60;1.00
21752;DHT22;11038;50.940;20.564;2022-09-13T12:00:27;22.80;1.00
21752;DHT22;11038;50.940;20.564;2022-09-13T12:02:11;22.90;1.00
21752;DHT22;11038;50.940;20.564;2022-09-13T12:04:19;22.90;1.00
21752;DHT22;11038;50.940;20.564;2022-09-13T12:06:00;23.00;1.00